Time;durP1;ratioP1;P1;durP2;ratioP2;P2;SDS_P1;SDS_P2;PMS_P1;PMS_P2;Temp;Humidity;BMP_temperature;BMP_pressure;BME280_temperature;BME280_humidity;BME280_pressure;Samples;Min_cycle;Max_cycle;Signal;HPM_P1;HPM_P2
2022/07/24 00:01:52;;;;;;;18.83;11.40;;;;;;;19.73;64.84;97628.22;10377210;28;20020;-56
2022/07/24 00:06:51;;;;;;;19.00;11.45;;;;;;;19.60;65.34;97612.94;10377054;28;20120;-56
2022/07/24 00:11:49;;;;;;;14.98;10.77;;;;;;;19.54;65.17;97610.50;10377197;28;20098;-55
2022/07/24 00:16:48;;;;;;;18.67;10.82;;;;;;;19.53;65.56;97607.91;10376404;28;20025;-55
2022/07/24 00:21:47;;;;;;;22.33;11.02;;;;;;;19.48;65.92;97615.13;10376428;28;20028;-55
2022/07/24 00:26:46;;;;;;;16.42;11.25;;;;;;;19.45;65.84;97603.81;10374485;28;20048;-55
2022/07/24 00:31:45;;;;;;;22.23;10.90;;;;;;;19.43;65.99;97608.25;10375607;28;20567;-55
2022/07/24 00:36:44;;;;;;;18.42;11.23;;;;;;;19.40;66.38;97610.19;10376396;28;20485;-55
2022/07/24 00:41:43;;;;;;;21.25;10.65;;;;;;;19.23;66.52;97579.25;10375598;28;20084;-55
2022/07/24 00:46:44;;;;;;;23.30;11.00;;;;;;;19.33;67.20;97606.91;10374723;28;20041;-55
2022/07/24 00:51:46;;;;;;;19.23;10.98;;;;;;;19.28;67.35;97598.34;10376581;28;20069;-55
2022/07/24 00:56:47;;;;;;;14.60;10.02;;;;;;;19.10;67.81;97588.53;10376494;28;20182;-55
2022/07/24 01:01:47;;;;;;;17.83;9.85;;;;;;;19.06;67.77;97587.78;10375392;28;20063;-55
2022/07/24 01:06:47;;;;;;;15.05;9.43;;;;;;;19.00;67.55;97588.88;10374769;28;20499;-55
2022/07/24 01:11:46;;;;;;;15.52;9.90;;;;;;;18.93;67.61;97583.91;10375974;28;20064;-55
2022/07/24 01:16:45;;;;;;;19.98;9.93;;;;;;;18.92;67.56;97584.81;10375141;28;20029;-55
2022/07/24 01:21:49;;;;;;;21.80;10.50;;;;;;;18.89;68.60;97580.53;10374136;28;20057;-55
2022/07/24 01:26:48;;;;;;;18.65;10.55;;;;;;;18.85;69.00;97588.59;10374435;28;20455;-55
2022/07/24 01:31:47;;;;;;;15.38;10.27;;;;;;;18.76;69.63;97579.25;10374450;28;20061;-55
2022/07/24 01:36:46;;;;;;;15.93;10.57;;;;;;;18.75;69.81;97577.56;10374347;28;20500;-55
2022/07/24 01:41:45;;;;;;;28.23;11.10;;;;;;;18.72;69.76;97577.69;10373143;28;20112;-55
2022/07/24 01:46:45;;;;;;;18.27;10.65;;;;;;;18.67;70.02;97579.59;10373294;28;20039;-55
2022/07/24 01:51:44;;;;;;;15.52;9.88;;;;;;;18.56;70.29;97577.34;10373312;28;20064;-55
2022/07/24 01:56:43;;;;;;;13.48;9.50;;;;;;;18.49;70.63;97568.81;10372882;28;20496;-55
2022/07/24 02:01:42;;;;;;;21.08;10.82;;;;;;;18.43;70.75;97570.78;10373570;28;20555;-55
2022/07/24 02:06:40;;;;;;;22.65;11.23;;;;;;;18.33;71.37;97570.25;10372394;28;20062;-55
2022/07/24 02:11:39;;;;;;;20.30;11.15;;;;;;;18.22;71.48;97575.03;10372126;28;20028;-55
2022/07/24 02:16:38;;;;;;;17.13;11.27;;;;;;;18.09;71.95;97571.97;10373332;28;20033;-55
2022/07/24 02:21:37;;;;;;;19.02;11.60;;;;;;;18.04;71.64;97580.00;10372440;28;20029;-55
2022/07/24 02:26:36;;;;;;;;;;;;;;;17.98;71.93;97585.47;10371162;28;20037;-55
2022/07/24 02:31:35;;;;;;;20.43;10.40;;;;;;;17.94;71.94;97574.22;10372437;28;19908;-55
2022/07/24 02:36:34;;;;;;;18.15;10.60;;;;;;;17.86;72.62;97573.59;10371436;28;20029;-55
2022/07/24 02:41:33;;;;;;;;;;;;;;;17.63;73.34;97574.31;10371842;28;20561;-55
2022/07/24 02:46:32;;;;;;;19.80;10.90;;;;;;;17.48;73.46;97573.06;10371728;28;19920;-55
2022/07/24 02:51:31;;;;;;;18.02;11.35;;;;;;;17.35;73.52;97561.22;10371060;28;20025;-55
2022/07/24 02:56:29;;;;;;;;;;;;;;;17.29;73.68;97562.28;10371294;28;20516;-55
2022/07/24 03:01:28;;;;;;;16.43;11.40;;;;;;;17.20;73.83;97549.44;10371776;28;20649;-55
2022/07/24 03:06:27;;;;;;;15.77;10.77;;;;;;;17.24;74.19;97561.56;10370955;28;20048;-55
2022/07/24 03:11:26;;;;;;;17.92;11.20;;;;;;;17.29;74.07;97575.38;10370446;28;20020;-55
2022/07/24 03:16:25;;;;;;;;;;;;;;;17.32;74.43;97563.94;10370365;28;20072;-55
2022/07/24 03:21:24;;;;;;;19.50;11.13;;;;;;;17.30;74.56;97566.59;10369736;28;19944;-55
2022/07/24 03:26:23;;;;;;;;;;;;;;;17.39;74.56;97551.50;10370651;28;20100;-55
2022/07/24 03:31:22;;;;;;;17.40;11.13;;;;;;;17.44;74.33;97558.31;10370253;28;19951;-55
2022/07/24 03:36:21;;;;;;;;;;;;;;;17.45;74.57;97559.16;10370794;28;20348;-55
2022/07/24 03:41:20;;;;;;;16.77;10.85;;;;;;;17.56;74.39;97554.44;10369776;28;19967;-55
2022/07/24 03:46:19;;;;;;;;;;;;;;;17.67;74.12;97554.94;10371192;28;20029;-55
2022/07/24 03:51:17;;;;;;;19.47;11.57;;;;;;;17.79;74.03;97558.97;10371017;28;19916;-55
2022/07/24 03:56:16;;;;;;;;;;;;;;;17.85;73.67;97573.69;10370228;28;20035;-55
2022/07/24 04:01:15;;;;;;;21.23;12.67;;;;;;;18.00;73.47;97567.03;10371569;28;19913;-55
2022/07/24 04:06:14;;;;;;;22.63;12.73;;;;;;;18.10;73.18;97561.41;10376338;28;20028;-55
2022/07/24 04:11:13;;;;;;;;;;;;;;;18.19;72.85;97557.63;10377018;28;20029;-55
2022/07/24 04:16:12;;;;;;;19.70;12.27;;;;;;;18.26;72.57;97568.78;10375479;28;19956;-55
2022/07/24 04:21:11;;;;;;;;;;;;;;;18.22;72.59;97567.16;10367879;28;20028;-55
2022/07/24 04:26:10;;;;;;;20.33;12.83;;;;;;;18.08;72.77;97555.38;10363444;28;19915;-56
2022/07/24 04:31:09;;;;;;;22.98;12.70;;;;;;;18.14;72.84;97570.06;10376259;28;20046;-56
2022/07/24 04:36:08;;;;;;;25.58;11.93;;;;;;;18.14;72.60;97565.66;10369910;28;20121;-56
2022/07/24 04:41:07;;;;;;;21.98;12.52;;;;;;;18.23;72.24;97580.25;10375929;28;20084;-56
2022/07/24 04:46:06;;;;;;;21.60;13.00;;;;;;;18.35;72.00;97571.06;10374228;28;20111;-57
2022/07/24 04:51:05;;;;;;;19.33;12.60;;;;;;;18.61;71.38;97588.53;10374018;28;20039;-56
2022/07/24 04:56:04;;;;;;;22.33;13.50;;;;;;;18.87;70.91;97579.72;10374708;28;20068;-56
2022/07/24 05:01:03;;;;;;;20.55;13.30;;;;;;;19.01;70.00;97572.16;10374767;28;20060;-56
2022/07/24 05:06:02;;;;;;;17.33;12.90;;;;;;;19.30;69.51;97585.13;10370158;28;20052;-56
2022/07/24 05:11:01;;;;;;;28.67;12.50;;;;;;;19.29;69.45;97594.78;10375365;28;20112;-56
2022/07/24 05:16:00;;;;;;;21.13;13.43;;;;;;;19.29;69.73;97589.53;10374894;28;20048;-56
2022/07/24 05:20:59;;;;;;;20.90;12.45;;;;;;;19.51;69.26;97599.22;10375988;28;20052;-56
2022/07/24 05:25:58;;;;;;;18.40;11.55;;;;;;;19.80;68.81;97590.19;10374863;28;20021;-56
2022/07/24 05:30:57;;;;;;;22.40;12.52;;;;;;;20.12;68.29;97595.88;10373667;28;20566;-57
2022/07/24 05:35:56;;;;;;;22.23;12.15;;;;;;;20.44;67.71;97599.81;10374001;28;20039;-56
2022/07/24 05:40:56;;;;;;;19.35;12.32;;;;;;;20.78;66.96;97598.38;10368104;28;20519;-57
2022/07/24 05:45:55;;;;;;;18.80;12.65;;;;;;;21.10;66.47;97592.47;10372034;28;20545;-56
2022/07/24 05:50:54;;;;;;;21.70;13.38;;;;;;;21.48;65.62;97589.00;10370087;28;20602;-56
2022/07/24 05:55:53;;;;;;;18.63;11.57;;;;;;;21.86;64.52;97592.41;10370742;28;20091;-57
2022/07/24 06:00:52;;;;;;;15.57;11.38;;;;;;;22.17;64.07;97580.34;10368981;28;20431;-55
2022/07/24 06:05:51;;;;;;;24.25;14.13;;;;;;;22.56;61.51;97587.19;10370057;28;20021;-55
2022/07/24 06:10:50;;;;;;;20.50;14.38;;;;;;;22.88;59.80;97582.88;10369553;28;20051;-55
2022/07/24 06:15:49;;;;;;;19.83;12.20;;;;;;;23.20;58.25;97589.03;10370409;28;20069;-57
2022/07/24 06:20:48;;;;;;;19.00;12.63;;;;;;;23.54;56.23;97576.63;10369364;28;20111;-57
2022/07/24 06:25:47;;;;;;;22.70;12.02;;;;;;;23.81;54.68;97568.03;10369396;28;20132;-55
2022/07/24 06:30:46;;;;;;;19.08;11.93;;;;;;;24.15;53.69;97547.53;10370710;28;20032;-56
2022/07/24 06:35:45;;;;;;;16.52;11.35;;;;;;;24.48;51.98;97558.78;10370391;28;20469;-56
2022/07/24 06:40:44;;;;;;;18.02;12.48;;;;;;;24.75;49.70;97560.69;10370944;28;20150;-56
2022/07/24 06:45:43;;;;;;;18.52;9.95;;;;;;;24.88;48.60;97555.53;10369841;28;20025;-56
2022/07/24 06:50:42;;;;;;;15.00;9.43;;;;;;;25.04;48.61;97548.31;10369670;28;20071;-56
2022/07/24 06:55:41;;;;;;;17.02;10.48;;;;;;;25.40;47.33;97557.53;10369894;28;20040;-56
2022/07/24 07:00:40;;;;;;;19.27;10.50;;;;;;;25.94;47.36;97546.91;10370853;28;20041;-56
2022/07/24 07:05:39;;;;;;;13.00;9.70;;;;;;;26.52;44.83;97542.13;10370642;28;20025;-56
2022/07/24 07:10:38;;;;;;;16.80;10.13;;;;;;;27.08;43.89;97543.63;10370602;28;20053;-56
2022/07/24 07:15:37;;;;;;;17.58;9.57;;;;;;;27.65;42.86;97544.84;10368793;28;20065;-55
2022/07/24 07:20:36;;;;;;;17.40;9.55;;;;;;;27.86;42.01;97542.41;10368997;28;20043;-55
2022/07/24 07:25:35;;;;;;;18.00;9.60;;;;;;;27.92;39.42;97544.63;10370597;28;20104;-55
2022/07/24 07:30:34;;;;;;;14.07;9.35;;;;;;;27.97;39.24;97542.44;10369885;28;20069;-56
2022/07/24 07:35:33;;;;;;;18.50;9.88;;;;;;;28.01;39.31;97541.25;10370366;28;20021;-56
2022/07/24 07:40:33;;;;;;;15.60;9.50;;;;;;;28.30;39.27;97538.22;10377362;28;20053;-56
2022/07/24 07:45:32;;;;;;;15.68;8.55;;;;;;;28.59;38.15;97533.28;10377003;28;20547;-56
2022/07/24 07:50:31;;;;;;;16.92;9.40;;;;;;;28.93;38.41;97541.34;10377634;28;20028;-56
2022/07/24 07:55:30;;;;;;;13.45;8.98;;;;;;;29.22;37.33;97537.19;10377824;28;20072;-56
2022/07/24 08:00:29;;;;;;;16.55;9.32;;;;;;;29.71;36.83;97535.03;10377258;28;20025;-56
2022/07/24 08:05:29;;;;;;;15.75;9.20;;;;;;;30.18;36.39;97535.59;10377171;28;20067;-56
2022/07/24 08:10:28;;;;;;;14.88;8.93;;;;;;;30.61;36.33;97537.31;10377932;28;20061;-56
2022/07/24 08:15:27;;;;;;;14.07;8.70;;;;;;;30.85;34.75;97530.81;10376833;28;20067;-56
2022/07/24 08:20:27;;;;;;;16.88;9.40;;;;;;;31.08;33.65;97543.06;10373449;28;20133;-56
2022/07/24 08:25:26;;;;;;;15.02;9.43;;;;;;;31.49;34.84;97548.38;10377020;28;20060;-57
2022/07/24 08:30:26;;;;;;;13.93;8.25;;;;;;;31.65;33.36;97547.88;10376121;28;20448;-56
2022/07/24 08:35:25;;;;;;;14.25;9.48;;;;;;;31.79;33.70;97544.78;10375691;28;20068;-56
2022/07/24 08:40:24;;;;;;;15.68;8.88;;;;;;;31.88;33.88;97537.75;10375338;28;20056;-57
2022/07/24 08:45:23;;;;;;;17.00;9.45;;;;;;;32.11;33.14;97543.72;10373636;28;20479;-56
2022/07/24 08:50:22;;;;;;;17.63;9.07;;;;;;;32.30;32.79;97535.63;10371494;28;20060;-56
2022/07/24 08:55:22;;;;;;;16.98;8.70;;;;;;;32.40;32.06;97539.13;10371875;28;20137;-56
2022/07/24 09:00:21;;;;;;;16.77;9.32;;;;;;;32.51;31.05;97539.97;10375358;28;20456;-56
2022/07/24 09:05:20;;;;;;;11.88;8.20;;;;;;;32.62;30.42;97531.75;10373376;28;20065;-56
2022/07/24 09:10:19;;;;;;;12.15;8.20;;;;;;;32.78;29.28;97531.97;10370776;28;20068;-56
2022/07/24 09:15:23;;;;;;;13.35;9.00;;;;;;;32.84;28.03;97526.03;10372450;28;20049;-56
2022/07/24 09:20:27;;;;;;;10.45;7.47;;;;;;;32.95;27.54;97521.44;10372805;28;20056;-56
2022/07/24 09:25:27;;;;;;;13.40;8.38;;;;;;;33.06;27.46;97524.78;10373058;28;20068;-56
2022/07/24 09:30:30;;;;;;;11.13;7.80;;;;;;;33.22;26.91;97517.97;10372970;28;20496;-56
2022/07/24 09:35:39;;;;;;;12.60;7.57;;;;;;;33.38;26.29;97514.63;10372420;28;20051;-56
2022/07/24 09:40:41;;;;;;;15.60;7.97;;;;;;;33.54;26.13;97509.41;10372847;28;20100;-56
2022/07/24 09:46:01;;;;;;;10.52;7.05;;;;;;;33.87;26.46;97509.78;10372960;28;20060;-57
2022/07/24 09:51:04;;;;;;;7.22;6.40;;;;;;;33.99;24.41;97505.81;10372830;28;20072;-57
2022/07/24 09:56:07;;;;;;;11.65;7.15;;;;;;;34.19;23.62;97506.53;10371989;28;20064;-57
2022/07/24 10:01:08;;;;;;;10.23;7.35;;;;;;;34.30;24.53;97505.41;10371879;28;20072;-56
2022/07/24 10:06:13;;;;;;;12.75;7.78;;;;;;;34.37;23.06;97495.72;10372109;28;20057;-58
2022/07/24 10:11:14;;;;;;;8.20;5.75;;;;;;;34.49;22.46;97497.13;10372363;28;20069;-57
2022/07/24 10:16:13;;;;;;;10.70;7.22;;;;;;;34.61;22.35;97489.66;10372423;28;20061;-57
2022/07/24 10:21:17;;;;;;;8.00;6.47;;;;;;;34.99;22.50;97490.19;10372231;28;20048;-57
2022/07/24 10:26:33;;;;;;;9.60;6.65;;;;;;;35.10;20.76;97479.13;10371670;28;20069;-57
2022/07/24 10:31:32;;;;;;;9.50;6.68;;;;;;;35.17;20.17;97484.72;10371533;28;20075;-57
2022/07/24 10:36:39;;;;;;;8.07;6.30;;;;;;;35.59;20.12;97472.19;10371248;28;20031;-57
2022/07/24 10:41:38;;;;;;;;;;;;;;;35.79;19.95;97462.78;10370240;28;20079;-57
2022/07/24 10:46:56;;;;;;;11.85;6.70;;;;;;;35.90;19.48;97470.53;10369806;28;19955;-57
2022/07/24 10:51:59;;;;;;;8.98;6.50;;;;;;;35.88;19.23;97469.03;10369857;28;20060;-56
2022/07/24 10:56:58;;;;;;;8.02;6.68;;;;;;;35.81;19.91;97459.88;10369931;28;20111;-56
2022/07/24 11:02:27;;;;;;;7.38;6.60;;;;;;;36.04;19.61;97447.41;10369746;28;20029;-57
2022/07/24 11:07:26;;;;;;;9.20;6.25;;;;;;;35.86;19.06;97453.00;10369694;28;20057;-57
2022/07/24 11:12:30;;;;;;;7.93;6.25;;;;;;;35.82;19.89;97443.53;10367836;28;20063;-57
2022/07/24 11:17:40;;;;;;;10.75;7.32;;;;;;;35.75;20.47;97435.25;10369249;28;20063;-57
2022/07/24 11:22:54;;;;;;;11.93;8.23;;;;;;;35.77;20.41;97432.41;10368846;28;20068;-57
2022/07/24 11:28:11;;;;;;;9.55;7.68;;;;;;;35.91;20.79;97441.69;10368831;28;20065;-57
2022/07/24 11:33:11;;;;;;;8.67;7.27;;;;;;;36.05;20.37;97438.28;10368822;28;20060;-57
2022/07/24 11:38:10;;;;;;;12.20;7.33;;;;;;;36.05;20.45;97430.19;10326768;28;1205530;-57
2022/07/24 11:43:10;;;;;;;10.10;7.78;;;;;;;36.03;19.07;97432.22;10371081;28;20097;-57
2022/07/24 11:48:18;;;;;;;8.52;7.32;;;;;;;36.29;19.67;97437.44;10370697;28;20075;-57
2022/07/24 11:53:17;;;;;;;10.38;7.03;;;;;;;36.21;20.16;97425.81;10371078;28;20068;-57
2022/07/24 11:58:18;;;;;;;9.38;7.82;;;;;;;36.01;20.62;97426.13;10369687;28;20072;-57
2022/07/24 12:03:17;;;;;;;8.30;7.47;;;;;;;35.85;20.37;97429.69;10370278;28;20065;-57
2022/07/24 12:08:19;;;;;;;9.38;6.97;;;;;;;35.83;20.69;97415.53;10370840;28;20053;-57
2022/07/24 12:13:18;;;;;;;10.18;7.47;;;;;;;35.85;19.98;97420.75;10369980;28;20064;-57
2022/07/24 12:18:18;;;;;;;7.78;6.97;;;;;;;35.88;20.27;97413.16;10370007;28;20126;-57
2022/07/24 12:23:18;;;;;;;11.85;7.57;;;;;;;35.99;20.84;97417.34;10373022;28;20119;-57
2022/07/24 12:28:19;;;;;;;9.38;7.65;;;;;;;36.12;19.96;97401.50;10376824;28;20060;-57
2022/07/24 12:33:17;;;;;;;10.00;7.18;;;;;;;36.17;20.56;97391.03;10376741;28;20060;-57
2022/07/24 12:38:26;;;;;;;8.93;7.00;;;;;;;36.13;20.58;97389.66;10376243;28;20044;-57
2022/07/24 12:43:27;;;;;;;10.30;7.63;;;;;;;35.88;20.77;97385.31;10377500;28;20068;-57
2022/07/24 12:48:26;;;;;;;8.70;7.80;;;;;;;35.66;20.29;97382.28;10376386;28;20080;-57
2022/07/24 12:53:28;;;;;;;9.20;7.40;;;;;;;35.81;20.61;97368.09;10376183;28;20072;-57
2022/07/24 12:58:27;;;;;;;9.20;7.63;;;;;;;35.81;20.23;97373.50;10375352;28;20076;-57
2022/07/24 13:03:27;;;;;;;9.25;7.95;;;;;;;36.21;20.91;97374.50;10375920;28;20065;-57
2022/07/24 13:08:26;;;;;;;8.25;7.32;;;;;;;36.51;20.50;97370.13;10375538;28;20060;-56
2022/07/24 13:13:24;;;;;;;10.40;7.60;;;;;;;36.66;19.20;97362.19;10375586;28;20033;-57
2022/07/24 13:18:23;;;;;;;8.63;7.57;;;;;;;36.72;19.94;97359.63;10374547;28;20021;-57
2022/07/24 13:23:22;;;;;;;8.95;8.07;;;;;;;36.57;20.22;97359.50;10374939;28;20025;-57
2022/07/24 13:28:21;;;;;;;9.48;8.20;;;;;;;36.37;20.19;97355.53;10374437;28;20478;-57
2022/07/24 13:33:20;;;;;;;10.02;7.97;;;;;;;36.28;19.78;97340.34;10373338;28;20025;-57
2022/07/24 13:38:19;;;;;;;9.85;8.10;;;;;;;36.52;19.67;97328.59;10373809;28;20168;-57
2022/07/24 13:43:18;;;;;;;9.00;8.10;;;;;;;36.56;19.79;97325.41;10374502;28;20039;-57
2022/07/24 13:48:17;;;;;;;10.93;8.75;;;;;;;35.97;20.68;97336.53;10373504;28;20035;-57
2022/07/24 13:53:16;;;;;;;9.98;8.63;;;;;;;35.71;22.05;97325.94;10374530;28;20056;-57
2022/07/24 13:58:16;;;;;;;9.90;8.85;;;;;;;35.61;21.94;97325.25;10375814;28;20107;-58
2022/07/24 14:03:15;;;;;;;13.02;8.90;;;;;;;35.44;22.82;97302.81;10373580;28;20056;-56
2022/07/24 14:08:14;;;;;;;10.00;8.98;;;;;;;35.55;22.54;97334.88;10373199;28;20090;-57
2022/07/24 14:13:13;;;;;;;10.75;9.55;;;;;;;35.41;23.00;97327.44;10373650;28;20068;-57
2022/07/24 14:18:12;;;;;;;10.13;9.05;;;;;;;34.97;23.52;97326.88;10373054;28;20033;-56
2022/07/24 14:23:12;;;;;;;11.57;8.70;;;;;;;34.83;23.64;97336.47;10372417;28;20072;-56
2022/07/24 14:28:12;;;;;;;10.95;8.88;;;;;;;34.68;24.32;97334.41;10372454;28;20056;-56
2022/07/24 14:33:11;;;;;;;11.20;9.07;;;;;;;34.64;24.47;97330.34;10372064;28;20534;-57
2022/07/24 14:38:10;;;;;;;10.07;9.05;;;;;;;34.69;24.60;97336.06;10371879;28;20419;-57
2022/07/24 14:43:09;;;;;;;9.77;8.57;;;;;;;34.62;24.47;97335.03;10372092;28;20048;-57
2022/07/24 14:48:08;;;;;;;12.55;9.23;;;;;;;34.50;24.99;97321.00;10371648;28;20068;-58
2022/07/24 14:53:07;;;;;;;12.57;9.55;;;;;;;34.59;24.64;97326.41;10371821;28;20492;-58
2022/07/24 14:58:06;;;;;;;12.18;9.40;;;;;;;34.84;25.56;97322.78;10371199;28;20084;-59
2022/07/24 15:03:05;;;;;;;10.18;8.80;;;;;;;34.85;24.95;97320.97;10371565;28;20412;-56
2022/07/24 15:08:04;;;;;;;10.73;9.60;;;;;;;35.07;24.53;97311.38;10371457;28;20036;-56
2022/07/24 15:13:03;;;;;;;10.93;9.27;;;;;;;35.04;24.23;97327.91;10371146;28;20060;-56
2022/07/24 15:18:02;;;;;;;10.45;9.32;;;;;;;34.86;24.87;97326.16;10370789;28;20044;-57
2022/07/24 15:23:01;;;;;;;9.95;8.95;;;;;;;34.77;25.63;97320.94;10370534;28;20064;-56
2022/07/24 15:28:00;;;;;;;10.63;9.05;;;;;;;34.66;25.90;97322.94;10370879;28;20116;-56
2022/07/24 15:33:00;;;;;;;10.98;9.60;;;;;;;34.68;26.33;97329.00;10370610;28;20072;-56
2022/07/24 15:37:59;;;;;;;10.60;9.30;;;;;;;34.29;27.59;97323.28;10370561;28;20564;-57
2022/07/24 15:43:00;;;;;;;13.43;9.50;;;;;;;34.11;27.77;97333.28;10370169;28;20579;-56
2022/07/24 15:47:59;;;;;;;13.35;10.25;;;;;;;33.64;27.71;97329.94;10366930;28;20064;-56
2022/07/24 15:52:58;;;;;;;11.90;10.70;;;;;;;33.20;27.17;97337.94;10369277;28;20036;-56
2022/07/24 15:57:56;;;;;;;17.00;11.43;;;;;;;32.70;27.53;97333.06;10372600;28;20037;-58
2022/07/24 16:02:55;;;;;;;13.90;10.68;;;;;;;32.40;27.86;97345.75;10378249;28;20028;-57
2022/07/24 16:07:54;;;;;;;12.50;11.10;;;;;;;32.30;28.27;97346.81;10376591;28;20466;-57
2022/07/24 16:12:54;;;;;;;15.88;12.63;;;;;;;32.39;27.67;97365.56;10376136;28;20037;-56
2022/07/24 16:17:52;;;;;;;15.05;11.18;;;;;;;32.39;28.99;97359.34;10376440;28;20079;-56
2022/07/24 16:22:51;;;;;;;14.32;12.10;;;;;;;32.34;30.13;97369.66;10370658;28;20048;-56
2022/07/24 16:27:50;;;;;;;14.40;11.90;;;;;;;32.19;30.51;97361.25;10376810;28;20060;-58
2022/07/24 16:32:49;;;;;;;14.10;12.65;;;;;;;32.09;30.33;97372.03;10375439;28;20036;-57
2022/07/24 16:37:48;;;;;;;14.80;12.35;;;;;;;32.09;30.14;97369.34;10374910;28;20510;-57
2022/07/24 16:42:48;;;;;;;14.32;12.10;;;;;;;32.08;30.51;97362.28;10376584;28;20076;-56
2022/07/24 16:47:46;;;;;;;17.40;12.60;;;;;;;32.08;30.47;97366.81;10369653;28;20057;-56
2022/07/24 16:52:46;;;;;;;14.32;12.10;;;;;;;32.13;30.41;97378.81;10375393;28;20053;-56
2022/07/24 16:57:44;;;;;;;13.32;11.98;;;;;;;32.11;30.25;97382.66;10374936;28;20069;-56
2022/07/24 17:02:43;;;;;;;15.65;12.52;;;;;;;32.01;30.35;97372.75;10374803;28;20119;-57
2022/07/24 17:07:42;;;;;;;14.75;12.27;;;;;;;31.89;30.57;97373.88;10375682;28;20072;-57
2022/07/24 17:12:41;;;;;;;15.13;13.55;;;;;;;31.76;31.11;97378.72;10374906;28;20037;-57
2022/07/24 17:17:58;;;;;;;15.45;12.60;;;;;;;31.59;31.52;97378.47;10373759;28;20036;-57
2022/07/24 17:23:03;;;;;;;14.13;11.88;;;;;;;31.41;31.33;97384.66;10372446;28;20079;-57
2022/07/24 17:28:04;;;;;;;13.63;12.25;;;;;;;31.22;31.36;97382.81;10374134;28;20067;-57
2022/07/24 17:33:04;;;;;;;16.10;13.10;;;;;;;31.01;31.82;97388.28;10374333;28;20460;-57
2022/07/24 17:38:03;;;;;;;16.08;13.60;;;;;;;30.76;33.32;97412.75;10372495;28;20076;-57
2022/07/24 17:43:02;;;;;;;17.58;13.25;;;;;;;30.45;34.50;97425.31;10373469;28;20067;-57
2022/07/24 17:48:01;;;;;;;15.02;13.35;;;;;;;30.15;35.19;97434.16;10372141;28;20064;-57
2022/07/24 17:53:00;;;;;;;14.82;13.18;;;;;;;29.84;35.71;97436.78;10371968;28;20036;-57
2022/07/24 17:57:59;;;;;;;15.98;13.73;;;;;;;29.58;36.00;97455.00;10368995;28;20073;-57
2022/07/24 18:02:58;;;;;;;14.10;12.60;;;;;;;29.33;36.75;97458.00;10372880;28;20053;-56
2022/07/24 18:07:58;;;;;;;14.75;13.10;;;;;;;29.05;37.01;97466.41;10371634;28;20454;-56
2022/07/24 18:12:57;;;;;;;16.75;13.23;;;;;;;28.81;36.94;97457.72;10371867;28;20083;-56
2022/07/24 18:17:56;;;;;;;18.08;13.73;;;;;;;28.67;37.81;97472.16;10371844;28;20052;-56
2022/07/24 18:22:55;;;;;;;14.65;13.15;;;;;;;28.50;38.17;97473.47;10371694;28;20033;-56
2022/07/24 18:27:54;;;;;;;19.25;14.73;;;;;;;28.30;38.40;97483.03;10367008;28;20045;-56
2022/07/24 18:32:53;;;;;;;18.52;15.60;;;;;;;28.14;38.87;97483.34;10370541;28;20033;-57
2022/07/24 18:37:52;;;;;;;18.55;16.13;;;;;;;28.00;38.89;97487.03;10370723;28;20073;-57
2022/07/24 18:42:51;;;;;;;19.13;16.38;;;;;;;27.91;39.09;97485.06;10369826;28;20029;-56
2022/07/24 18:47:50;;;;;;;19.50;16.30;;;;;;;27.75;40.24;97495.19;10370465;28;20036;-56
2022/07/24 18:52:49;;;;;;;15.93;14.32;;;;;;;27.57;40.80;97500.09;10370245;28;20033;-56
2022/07/24 18:57:48;;;;;;;15.43;13.85;;;;;;;27.33;41.64;97497.38;10367571;28;20585;-56
2022/07/24 19:02:47;;;;;;;15.98;14.32;;;;;;;27.18;41.97;97497.53;10371450;28;20067;-56
2022/07/24 19:07:46;;;;;;;18.38;14.85;;;;;;;27.02;42.49;97496.94;10368342;28;20068;-56
2022/07/24 19:12:45;;;;;;;15.80;14.07;;;;;;;26.90;42.86;97508.50;10368541;28;20029;-56
2022/07/24 19:17:44;;;;;;;18.30;13.65;;;;;;;26.74;42.78;97519.34;10370140;28;20025;-56
2022/07/24 19:22:43;;;;;;;17.13;14.10;;;;;;;26.63;43.36;97529.88;10369803;28;20027;-57
2022/07/24 19:27:42;;;;;;;17.65;14.75;;;;;;;26.39;44.33;97519.13;10370398;28;20025;-57
2022/07/24 19:32:41;;;;;;;15.95;14.27;;;;;;;26.40;44.44;97535.00;10370995;28;20025;-57
2022/07/24 19:37:40;;;;;;;16.85;13.82;;;;;;;26.39;44.93;97543.94;10377815;28;20052;-57
2022/07/24 19:42:39;;;;;;;14.50;12.45;;;;;;;26.33;44.62;97563.00;10377116;28;20081;-57
2022/07/24 19:47:38;;;;;;;13.63;12.10;;;;;;;26.49;44.14;97558.31;10377457;28;20064;-57
2022/07/24 19:52:37;;;;;;;14.52;10.68;;;;;;;26.63;43.36;97559.16;10376276;28;20033;-57
2022/07/24 19:57:36;;;;;;;13.07;9.57;;;;;;;26.81;42.80;97568.53;10375401;28;20475;-56
2022/07/24 20:02:35;;;;;;;11.40;9.55;;;;;;;26.98;42.57;97570.06;10376445;28;20076;-57
2022/07/24 20:07:34;;;;;;;15.10;10.18;;;;;;;27.16;43.36;97594.50;10376435;28;20061;-57
2022/07/24 20:12:33;;;;;;;13.57;10.27;;;;;;;27.18;44.35;97595.25;10375534;28;20036;-57
2022/07/24 20:17:32;;;;;;;15.32;11.02;;;;;;;27.02;45.37;97578.66;10376070;28;20060;-57
2022/07/24 20:22:31;;;;;;;12.48;10.57;;;;;;;26.92;45.48;97583.78;10375736;28;20067;-57
2022/07/24 20:27:30;;;;;;;11.27;9.90;;;;;;;26.77;44.93;97580.38;10376260;28;20062;-57
2022/07/24 20:32:29;;;;;;;12.45;9.55;;;;;;;26.66;45.07;97582.91;10376222;28;20037;-57
2022/07/24 20:37:32;;;;;;;12.77;10.80;;;;;;;26.68;44.73;97594.31;10375635;28;20147;-57
2022/07/24 20:42:31;;;;;;;13.05;10.20;;;;;;;26.68;44.84;97611.13;10375296;28;20160;-57
2022/07/24 20:47:30;;;;;;;10.88;9.77;;;;;;;26.56;45.44;97633.28;10374695;28;20092;-57
2022/07/24 20:52:29;;;;;;;15.23;10.02;;;;;;;26.54;45.08;97630.72;10374267;28;20056;-57
2022/07/24 20:57:27;;;;;;;12.02;10.57;;;;;;;26.53;45.64;97644.97;10373683;28;20091;-56
2022/07/24 21:02:26;;;;;;;12.40;9.50;;;;;;;26.32;46.49;97651.72;10374491;28;20493;-57
2022/07/24 21:07:26;;;;;;;13.30;10.07;;;;;;;26.15;46.64;97658.97;10374053;28;20463;-57
2022/07/24 21:12:25;;;;;;;13.70;10.52;;;;;;;26.10;46.16;97665.56;10374296;28;20159;-57
2022/07/24 21:17:24;;;;;;;14.57;10.32;;;;;;;26.06;45.88;97658.72;10373747;28;20041;-57
2022/07/24 21:22:22;;;;;;;13.57;10.27;;;;;;;26.07;45.69;97660.47;10375330;28;20103;-57
2022/07/24 21:27:21;;;;;;;11.52;10.43;;;;;;;26.03;45.77;97661.59;10373482;28;20033;-57
2022/07/24 21:32:20;;;;;;;14.02;9.90;;;;;;;25.99;46.00;97662.75;10373338;28;20362;-56
2022/07/24 21:37:19;;;;;;;13.63;10.27;;;;;;;25.98;45.86;97680.50;10372675;28;20462;-56
2022/07/24 21:42:19;;;;;;;14.80;11.77;;;;;;;25.92;45.96;97664.94;10372577;28;20583;-57
2022/07/24 21:47:18;;;;;;;13.82;11.45;;;;;;;25.88;46.15;97663.47;10373469;28;20488;-57
2022/07/24 21:52:16;;;;;;;16.40;10.82;;;;;;;25.89;46.34;97663.34;10374656;28;20594;-57
2022/07/24 21:57:16;;;;;;;13.15;11.02;;;;;;;25.84;47.16;97651.31;10372511;28;20400;-57
2022/07/24 22:02:15;;;;;;;15.45;12.18;;;;;;;25.71;47.26;97644.13;10371993;28;20096;-57
2022/07/24 22:07:14;;;;;;;13.07;11.77;;;;;;;25.58;47.50;97643.22;10373718;28;20445;-57
2022/07/24 22:12:13;;;;;;;14.23;11.15;;;;;;;25.42;47.59;97639.78;10370079;28;20552;-56
2022/07/24 22:17:12;;;;;;;12.20;10.90;;;;;;;25.35;47.92;97659.72;10371657;28;20091;-57
2022/07/24 22:22:11;;;;;;;17.25;11.40;;;;;;;25.25;48.14;97668.25;10372634;28;20082;-57
2022/07/24 22:27:10;;;;;;;14.68;11.43;;;;;;;25.19;48.31;97683.72;10370730;28;20071;-57
2022/07/24 22:32:10;;;;;;;12.63;11.27;;;;;;;25.13;48.54;97684.97;10371434;28;20083;-56
2022/07/24 22:37:10;;;;;;;12.32;11.05;;;;;;;25.08;48.75;97690.53;10371500;28;20052;-57
2022/07/24 22:42:09;;;;;;;12.55;11.25;;;;;;;25.04;49.18;97689.03;10371486;28;20077;-57
2022/07/24 22:47:09;;;;;;;13.63;12.18;;;;;;;24.90;49.45;97671.28;10371789;28;20515;-56
2022/07/24 22:52:09;;;;;;;14.68;13.07;;;;;;;24.87;49.83;97663.50;10371656;28;20083;-56
2022/07/24 22:57:08;;;;;;;14.02;12.50;;;;;;;24.78;50.43;97656.06;10370960;28;20067;-56